sensor_id;sensor_type;location;lat;lon;timestamp;pressure;altitude;pressure_sealevel;temperature;humidity
61618;BME280;47518;51.776;9.370;2023-03-21T00:02:11;100382.88;;;9.38;78.31
61618;BME280;47518;51.776;9.370;2023-03-21T00:04:36;100386.97;;;9.42;77.79
61618;BME280;47518;51.776;9.370;2023-03-21T00:07:05;100385.09;;;9.42;78.58
61618;BME280;47518;51.776;9.370;2023-03-21T00:09:30;100373.56;;;9.40;77.73
61618;BME280;47518;51.776;9.370;2023-03-21T00:11:56;100389.03;;;9.64;77.13
61618;BME280;47518;51.776;9.370;2023-03-21T00:14:21;100380.00;;;9.72;77.32
61618;BME280;47518;51.776;9.370;2023-03-21T00:16:47;100381.53;;;9.82;77.46
61618;BME280;47518;51.776;9.370;2023-03-21T00:19:15;100377.84;;;9.75;76.53
61618;BME280;47518;51.776;9.370;2023-03-21T00:21:41;100381.06;;;9.87;76.59
61618;BME280;47518;51.776;9.370;2023-03-21T00:24:08;100372.06;;;9.86;76.73
61618;BME280;47518;51.776;9.370;2023-03-21T00:26:34;100366.63;;;9.78;77.75
61618;BME280;47518;51.776;9.370;2023-03-21T00:29:00;100370.69;;;9.82;77.80
61618;BME280;47518;51.776;9.370;2023-03-21T00:31:25;100368.66;;;9.84;76.85
61618;BME280;47518;51.776;9.370;2023-03-21T00:33:51;100362.53;;;9.82;78.00
61618;BME280;47518;51.776;9.370;2023-03-21T00:36:16;100361.72;;;9.74;77.59
61618;BME280;47518;51.776;9.370;2023-03-21T00:38:42;100360.53;;;9.76;78.25
61618;BME280;47518;51.776;9.370;2023-03-21T00:41:10;100358.16;;;9.65;78.33
61618;BME280;47518;51.776;9.370;2023-03-21T00:43:36;100361.19;;;9.78;77.85
61618;BME280;47518;51.776;9.370;2023-03-21T00:46:02;100345.06;;;9.77;78.26
61618;BME280;47518;51.776;9.370;2023-03-21T00:48:28;100347.78;;;9.85;78.41
61618;BME280;47518;51.776;9.370;2023-03-21T00:50:55;100342.38;;;9.85;77.89
61618;BME280;47518;51.776;9.370;2023-03-21T00:53:22;100342.69;;;9.82;78.37
61618;BME280;47518;51.776;9.370;2023-03-21T00:55:49;100336.56;;;9.72;78.54
61618;BME280;47518;51.776;9.370;2023-03-21T00:58:18;100342.72;;;9.74;78.83
61618;BME280;47518;51.776;9.370;2023-03-21T01:00:43;100336.44;;;9.73;78.57
61618;BME280;47518;51.776;9.370;2023-03-21T01:03:12;100334.06;;;9.62;77.89
61618;BME280;47518;51.776;9.370;2023-03-21T01:05:41;100334.03;;;9.70;79.16
61618;BME280;47518;51.776;9.370;2023-03-21T01:08:27;100336.94;;;9.77;77.63
61618;BME280;47518;51.776;9.370;2023-03-21T01:10:59;100335.09;;;9.61;79.39
61618;BME280;47518;51.776;9.370;2023-03-21T01:13:25;100329.97;;;9.66;78.60
61618;BME280;47518;51.776;9.370;2023-03-21T01:15:53;100331.84;;;9.57;79.40
61618;BME280;47518;51.776;9.370;2023-03-21T01:18:22;100321.00;;;9.41;78.92
61618;BME280;47518;51.776;9.370;2023-03-21T01:20:49;100328.09;;;9.58;79.21
61618;BME280;47518;51.776;9.370;2023-03-21T01:23:15;100324.56;;;9.42;80.63
61618;BME280;47518;51.776;9.370;2023-03-21T01:25:41;100326.25;;;9.43;80.44
61618;BME280;47518;51.776;9.370;2023-03-21T01:28:07;100321.66;;;9.43;80.04
61618;BME280;47518;51.776;9.370;2023-03-21T01:30:33;100317.41;;;9.49;79.24
61618;BME280;47518;51.776;9.370;2023-03-21T01:32:58;100325.06;;;9.45;80.15
61618;BME280;47518;51.776;9.370;2023-03-21T01:35:24;100320.13;;;9.32;80.09
61618;BME280;47518;51.776;9.370;2023-03-21T01:37:50;100321.16;;;9.48;80.22
61618;BME280;47518;51.776;9.370;2023-03-21T01:40:18;100318.28;;;9.41;79.69
61618;BME280;47518;51.776;9.370;2023-03-21T01:42:45;100322.34;;;9.45;80.39
61618;BME280;47518;51.776;9.370;2023-03-21T01:48:17;100322.34;;;9.70;80.39
61618;BME280;47518;51.776;9.370;2023-03-21T01:50:44;100321.66;;;9.68;79.69
61618;BME280;47518;51.776;9.370;2023-03-21T01:53:10;100319.78;;;9.68;80.04
61618;BME280;47518;51.776;9.370;2023-03-21T01:55:36;100314.38;;;9.76;80.71
61618;BME280;47518;51.776;9.370;2023-03-21T01:58:05;100312.16;;;9.72;80.19
61618;BME280;47518;51.776;9.370;2023-03-21T02:00:31;100312.00;;;9.65;80.11
61618;BME280;47518;51.776;9.370;2023-03-21T02:02:58;100310.94;;;9.82;80.32
61618;BME280;47518;51.776;9.370;2023-03-21T02:05:36;100310.47;;;9.54;81.23
61618;BME280;47518;51.776;9.370;2023-03-21T02:08:03;100308.44;;;9.40;81.27
61618;BME280;47518;51.776;9.370;2023-03-21T02:10:31;100309.63;;;9.62;81.35
61618;BME280;47518;51.776;9.370;2023-03-21T02:12:59;100315.38;;;9.34;80.77
61618;BME280;47518;51.776;9.370;2023-03-21T02:15:35;100308.25;;;9.33;81.95
61618;BME280;47518;51.776;9.370;2023-03-21T02:18:12;100307.72;;;9.14;82.57
61618;BME280;47518;51.776;9.370;2023-03-21T02:27:19;100293.50;;;9.12;83.21
61618;BME280;47518;51.776;9.370;2023-03-21T02:30:27;100284.53;;;9.27;81.68
61618;BME280;47518;51.776;9.370;2023-03-21T02:46:14;100283.50;;;9.20;83.04
61618;BME280;47518;51.776;9.370;2023-03-21T02:48:50;100282.16;;;9.41;83.28
61618;BME280;47518;51.776;9.370;2023-03-21T02:51:19;100275.69;;;9.25;84.02
61618;BME280;47518;51.776;9.370;2023-03-21T02:53:49;100282.31;;;9.15;84.41
61618;BME280;47518;51.776;9.370;2023-03-21T02:56:17;100279.44;;;9.16;84.31
61618;BME280;47518;51.776;9.370;2023-03-21T02:58:44;100278.72;;;8.98;84.98
61618;BME280;47518;51.776;9.370;2023-03-21T03:01:10;100278.25;;;9.19;84.25
61618;BME280;47518;51.776;9.370;2023-03-21T03:03:36;100272.66;;;9.04;83.98
61618;BME280;47518;51.776;9.370;2023-03-21T03:06:12;100280.19;;;8.68;84.81
61618;BME280;47518;51.776;9.370;2023-03-21T03:08:58;100270.78;;;9.04;85.08
61618;BME280;47518;51.776;9.370;2023-03-21T03:14:38;100270.63;;;9.22;84.79
61618;BME280;47518;51.776;9.370;2023-03-21T03:30:26;100257.38;;;8.95;83.81
61618;BME280;47518;51.776;9.370;2023-03-21T03:32:56;100254.13;;;8.91;84.40
61618;BME280;47518;51.776;9.370;2023-03-21T03:35:24;100259.41;;;9.01;84.17
61618;BME280;47518;51.776;9.370;2023-03-21T03:37:54;100256.25;;;8.55;85.70
61618;BME280;47518;51.776;9.370;2023-03-21T03:40:40;100249.41;;;8.85;85.76
61618;BME280;47518;51.776;9.370;2023-03-21T03:43:13;100242.94;;;8.70;85.37
61618;BME280;47518;51.776;9.370;2023-03-21T03:45:42;100245.69;;;8.94;85.47
61618;BME280;47518;51.776;9.370;2023-03-21T03:48:14;100242.75;;;8.63;85.99
61618;BME280;47518;51.776;9.370;2023-03-21T03:50:48;100245.47;;;8.63;86.44
61618;BME280;47518;51.776;9.370;2023-03-21T03:53:24;100240.31;;;8.44;88.10
61618;BME280;47518;51.776;9.370;2023-03-21T03:55:53;100241.44;;;8.84;85.88
61618;BME280;47518;51.776;9.370;2023-03-21T03:58:22;100247.22;;;8.97;85.56
61618;BME280;47518;51.776;9.370;2023-03-21T04:00:52;100248.56;;;9.01;85.32
61618;BME280;47518;51.776;9.370;2023-03-21T04:03:22;100250.25;;;9.02;86.03
61618;BME280;47518;51.776;9.370;2023-03-21T04:05:47;100246.19;;;9.14;85.11
61618;BME280;47518;51.776;9.370;2023-03-21T04:08:14;100250.25;;;9.02;86.58
61618;BME280;47518;51.776;9.370;2023-03-21T04:10:41;100247.03;;;8.90;84.92
61618;BME280;47518;51.776;9.370;2023-03-21T04:13:10;100237.19;;;8.81;86.03
61618;BME280;47518;51.776;9.370;2023-03-21T04:15:36;100241.22;;;8.61;87.20
61618;BME280;47518;51.776;9.370;2023-03-21T04:18:02;100229.22;;;8.88;85.88
61618;BME280;47518;51.776;9.370;2023-03-21T04:20:31;100246.06;;;9.16;84.91
61618;BME280;47518;51.776;9.370;2023-03-21T04:22:56;100236.38;;;9.29;85.14
61618;BME280;47518;51.776;9.370;2023-03-21T04:25:22;100237.53;;;9.02;85.29
61618;BME280;47518;51.776;9.370;2023-03-21T04:27:48;100232.97;;;8.95;85.13
61618;BME280;47518;51.776;9.370;2023-03-21T04:43:19;100235.81;;;8.61;86.30
61618;BME280;47518;51.776;9.370;2023-03-21T04:45:45;100230.25;;;8.70;85.97
61618;BME280;47518;51.776;9.370;2023-03-21T04:48:10;100222.06;;;8.54;85.39
61618;BME280;47518;51.776;9.370;2023-03-21T04:50:35;100217.31;;;8.56;86.31
61618;BME280;47518;51.776;9.370;2023-03-21T04:53:00;100214.44;;;8.50;87.10
61618;BME280;47518;51.776;9.370;2023-03-21T04:55:26;100212.13;;;8.71;85.35
61618;BME280;47518;51.776;9.370;2023-03-21T04:57:53;100213.50;;;8.33;87.34
61618;BME280;47518;51.776;9.370;2023-03-21T05:00:18;100225.69;;;8.29;87.23
61618;BME280;47518;51.776;9.370;2023-03-21T05:02:45;100202.81;;;8.31;86.64
61618;BME280;47518;51.776;9.370;2023-03-21T05:05:11;100211.53;;;8.09;88.17
61618;BME280;47518;51.776;9.370;2023-03-21T05:07:39;100211.78;;;8.24;88.28
61618;BME280;47518;51.776;9.370;2023-03-21T05:10:06;100211.78;;;8.32;87.13
61618;BME280;47518;51.776;9.370;2023-03-21T05:12:32;100220.72;;;8.16;88.68
61618;BME280;47518;51.776;9.370;2023-03-21T05:14:58;100214.63;;;8.14;87.87
61618;BME280;47518;51.776;9.370;2023-03-21T05:17:23;100215.94;;;8.10;88.57
61618;BME280;47518;51.776;9.370;2023-03-21T05:19:49;100218.03;;;8.16;87.62
61618;BME280;47518;51.776;9.370;2023-03-21T05:22:17;100209.50;;;8.37;87.14
61618;BME280;47518;51.776;9.370;2023-03-21T05:24:44;100214.84;;;8.29;87.80
61618;BME280;47518;51.776;9.370;2023-03-21T05:27:15;100212.25;;;8.11;87.65
61618;BME280;47518;51.776;9.370;2023-03-21T05:30:00;100212.44;;;8.17;88.00
61618;BME280;47518;51.776;9.370;2023-03-21T05:32:26;100218.53;;;8.19;88.53
61618;BME280;47518;51.776;9.370;2023-03-21T05:34:51;100214.63;;;8.14;88.61
61618;BME280;47518;51.776;9.370;2023-03-21T05:37:17;100205.88;;;8.28;87.87
61618;BME280;47518;51.776;9.370;2023-03-21T05:39:42;100221.63;;;8.25;88.21
61618;BME280;47518;51.776;9.370;2023-03-21T05:42:07;100207.69;;;8.19;88.04
61618;BME280;47518;51.776;9.370;2023-03-21T05:44:32;100212.09;;;8.12;88.01
61618;BME280;47518;51.776;9.370;2023-03-21T05:46:58;100214.25;;;8.01;89.64
61618;BME280;47518;51.776;9.370;2023-03-21T05:49:23;100221.28;;;8.28;88.84
61618;BME280;47518;51.776;9.370;2023-03-21T05:51:50;100221.63;;;8.33;87.54
61618;BME280;47518;51.776;9.370;2023-03-21T05:54:15;100219.94;;;8.32;87.57
61618;BME280;47518;51.776;9.370;2023-03-21T05:56:41;100226.53;;;8.29;87.42
61618;BME280;47518;51.776;9.370;2023-03-21T05:59:07;100222.63;;;8.24;88.92
61618;BME280;47518;51.776;9.370;2023-03-21T06:01:32;100223.38;;;8.08;89.02
61618;BME280;47518;51.776;9.370;2023-03-21T06:04:00;100220.16;;;8.04;89.98
61618;BME280;47518;51.776;9.370;2023-03-21T06:06:25;100225.34;;;8.24;88.09
61618;BME280;47518;51.776;9.370;2023-03-21T06:08:51;100226.75;;;8.36;87.79
61618;BME280;47518;51.776;9.370;2023-03-21T06:58:42;100227.03;;;8.83;85.98
61618;BME280;47518;51.776;9.370;2023-03-21T07:01:32;100235.72;;;9.03;85.17
61618;BME280;47518;51.776;9.370;2023-03-21T07:07:33;100228.22;;;8.97;85.92
61618;BME280;47518;51.776;9.370;2023-03-21T07:09:27;100224.50;;;8.98;85.35
61618;BME280;47518;51.776;9.370;2023-03-21T07:10:31;100229.94;;;9.06;84.26
61618;BME280;47518;51.776;9.370;2023-03-21T07:13:30;100218.56;;;8.94;83.47
61618;BME280;47518;51.776;9.370;2023-03-21T07:19:37;100228.56;;;9.43;83.07
61618;BME280;47518;51.776;9.370;2023-03-21T07:29:39;100223.09;;;9.59;81.51
61618;BME280;47518;51.776;9.370;2023-03-21T07:32:56;100222.28;;;9.50;80.79
61618;BME280;47518;51.776;9.370;2023-03-21T07:42:37;100213.91;;;9.76;80.07
61618;BME280;47518;51.776;9.370;2023-03-21T07:45:34;100215.31;;;9.56;80.20
61618;BME280;47518;51.776;9.370;2023-03-21T07:48:19;100211.97;;;9.29;80.39
61618;BME280;47518;51.776;9.370;2023-03-21T07:50:51;100199.69;;;9.58;79.63
61618;BME280;47518;51.776;9.370;2023-03-21T07:56:57;100199.69;;;9.66;79.18
61618;BME280;47518;51.776;9.370;2023-03-21T08:00:06;100203.97;;;9.52;79.64
61618;BME280;47518;51.776;9.370;2023-03-21T08:03:19;100197.28;;;9.79;78.97
61618;BME280;47518;51.776;9.370;2023-03-21T08:06:21;100201.31;;;9.83;79.18
61618;BME280;47518;51.776;9.370;2023-03-21T08:12:48;100209.00;;;10.27;77.57
61618;BME280;47518;51.776;9.370;2023-03-21T08:15:30;100205.13;;;10.21;76.33
61618;BME280;47518;51.776;9.370;2023-03-21T09:30:38;100192.72;;;11.56;69.95
61618;BME280;47518;51.776;9.370;2023-03-21T09:34:03;100192.44;;;11.51;70.66
61618;BME280;47518;51.776;9.370;2023-03-21T09:37:18;100190.28;;;11.76;70.58
61618;BME280;47518;51.776;9.370;2023-03-21T09:40:22;100179.53;;;11.83;69.37
61618;BME280;47518;51.776;9.370;2023-03-21T09:43:05;100180.16;;;11.70;69.77
61618;BME280;47518;51.776;9.370;2023-03-21T09:46:02;100179.94;;;11.57;71.66
61618;BME280;47518;51.776;9.370;2023-03-21T09:49:02;100174.63;;;11.63;72.16
61618;BME280;47518;51.776;9.370;2023-03-21T09:51:58;100178.97;;;11.87;70.22
61618;BME280;47518;51.776;9.370;2023-03-21T09:58:01;100186.53;;;11.77;72.93
61618;BME280;47518;51.776;9.370;2023-03-21T10:04:23;100180.72;;;11.65;74.28
61618;BME280;47518;51.776;9.370;2023-03-21T10:10:44;100184.84;;;11.76;73.14
61618;BME280;47518;51.776;9.370;2023-03-21T10:10:50;100174.44;;;11.80;71.50
61618;BME280;47518;51.776;9.370;2023-03-21T10:13:25;100173.72;;;11.86;72.04
61618;BME280;47518;51.776;9.370;2023-03-21T10:15:59;100173.13;;;11.61;74.95
61618;BME280;47518;51.776;9.370;2023-03-21T10:18:47;100167.47;;;11.62;72.86
61618;BME280;47518;51.776;9.370;2023-03-21T10:25:02;100163.69;;;11.34;75.25
61618;BME280;47518;51.776;9.370;2023-03-21T10:28:28;100167.53;;;11.25;76.12
61618;BME280;47518;51.776;9.370;2023-03-21T11:23:27;100152.16;;;10.94;81.04
61618;BME280;47518;51.776;9.370;2023-03-21T11:26:34;100157.22;;;10.97;79.85
61618;BME280;47518;51.776;9.370;2023-03-21T11:31:08;100154.31;;;10.99;79.17
61618;BME280;47518;51.776;9.370;2023-03-21T12:20:52;100120.44;;;10.64;85.46
61618;BME280;47518;51.776;9.370;2023-03-21T12:26:51;100109.41;;;10.42;86.67
61618;BME280;47518;51.776;9.370;2023-03-21T12:29:38;100111.38;;;10.48;88.44
61618;BME280;47518;51.776;9.370;2023-03-21T12:32:37;100111.69;;;10.54;88.91
61618;BME280;47518;51.776;9.370;2023-03-21T12:38:31;100095.72;;;10.50;90.22
61618;BME280;47518;51.776;9.370;2023-03-21T12:54:22;100078.06;;;10.55;92.02
61618;BME280;47518;51.776;9.370;2023-03-21T13:02:40;100072.72;;;10.61;92.48
61618;BME280;47518;51.776;9.370;2023-03-21T13:05:29;100075.38;;;10.46;92.09
61618;BME280;47518;51.776;9.370;2023-03-21T13:08:03;100069.41;;;10.51;94.80
61618;BME280;47518;51.776;9.370;2023-03-21T13:10:39;100065.78;;;10.59;94.93
61618;BME280;47518;51.776;9.370;2023-03-21T13:29:50;100039.94;;;10.40;93.64
61618;BME280;47518;51.776;9.370;2023-03-21T13:32:29;100042.78;;;10.46;95.27
61618;BME280;47518;51.776;9.370;2023-03-21T13:35:00;100042.47;;;10.41;96.01
61618;BME280;47518;51.776;9.370;2023-03-21T13:37:31;100035.28;;;10.48;95.69
61618;BME280;47518;51.776;9.370;2023-03-21T13:40:02;100034.41;;;10.33;96.83
61618;BME280;47518;51.776;9.370;2023-03-21T13:42:44;100024.84;;;10.37;97.95
61618;BME280;47518;51.776;9.370;2023-03-21T13:45:27;100025.19;;;10.57;96.76
61618;BME280;47518;51.776;9.370;2023-03-21T13:47:59;100028.72;;;10.43;97.65
61618;BME280;47518;51.776;9.370;2023-03-21T13:53:23;100019.28;;;10.54;96.18
61618;BME280;47518;51.776;9.370;2023-03-21T13:55:59;100016.78;;;10.67;97.16
61618;BME280;47518;51.776;9.370;2023-03-21T14:04:16;100012.53;;;10.64;95.67
61618;BME280;47518;51.776;9.370;2023-03-21T14:09:44;100008.97;;;10.64;94.56
61618;BME280;47518;51.776;9.370;2023-03-21T14:12:14;100009.94;;;10.71;96.02
61618;BME280;47518;51.776;9.370;2023-03-21T14:14:43;100012.53;;;10.64;95.37
61618;BME280;47518;51.776;9.370;2023-03-21T14:17:11;100006.56;;;10.69;96.06
61618;BME280;47518;51.776;9.370;2023-03-21T14:19:37;99989.88;;;10.72;94.61
61618;BME280;47518;51.776;9.370;2023-03-21T14:22:09;100008.91;;;10.87;93.89
61618;BME280;47518;51.776;9.370;2023-03-21T14:24:35;99994.59;;;10.78;93.63
61618;BME280;47518;51.776;9.370;2023-03-21T14:27:05;99992.06;;;10.91;91.80
61618;BME280;47518;51.776;9.370;2023-03-21T14:29:34;99980.88;;;10.86;91.62
61618;BME280;47518;51.776;9.370;2023-03-21T14:32:00;99986.97;;;10.88;93.06
61618;BME280;47518;51.776;9.370;2023-03-21T14:34:28;99978.66;;;10.90;92.60
61618;BME280;47518;51.776;9.370;2023-03-21T14:36:56;99976.09;;;10.88;90.99
61618;BME280;47518;51.776;9.370;2023-03-21T14:39:27;99971.34;;;10.90;92.60
61618;BME280;47518;51.776;9.370;2023-03-21T14:41:55;99980.22;;;10.99;90.70
61618;BME280;47518;51.776;9.370;2023-03-21T14:44:36;99969.81;;;10.88;90.75
61618;BME280;47518;51.776;9.370;2023-03-21T14:49:58;99965.69;;;11.06;89.59
61618;BME280;47518;51.776;9.370;2023-03-21T14:55:13;99975.09;;;10.89;91.25
61618;BME280;47518;51.776;9.370;2023-03-21T14:57:39;99971.13;;;10.77;90.17
61618;BME280;47518;51.776;9.370;2023-03-21T15:00:07;99974.22;;;10.74;90.75
61618;BME280;47518;51.776;9.370;2023-03-21T15:02:43;99969.44;;;10.76;90.13
61618;BME280;47518;51.776;9.370;2023-03-21T15:05:29;99960.53;;;10.82;87.81
61618;BME280;47518;51.776;9.370;2023-03-21T15:08:11;99968.31;;;10.85;88.61
61618;BME280;47518;51.776;9.370;2023-03-21T15:10:38;99959.13;;;10.86;89.29
61618;BME280;47518;51.776;9.370;2023-03-21T15:13:14;99960.16;;;10.85;88.32
61618;BME280;47518;51.776;9.370;2023-03-21T15:15:41;99957.25;;;10.87;88.62
61618;BME280;47518;51.776;9.370;2023-03-21T15:18:10;99949.78;;;10.89;89.68
61618;BME280;47518;51.776;9.370;2023-03-21T15:20:37;99945.63;;;10.78;89.58
61618;BME280;47518;51.776;9.370;2023-03-21T15:23:11;99917.97;;;10.89;89.38
61618;BME280;47518;51.776;9.370;2023-03-21T15:25:39;99914.56;;;10.87;88.86
61618;BME280;47518;51.776;9.370;2023-03-21T15:28:05;99913.44;;;10.96;88.03
61618;BME280;47518;51.776;9.370;2023-03-21T15:30:31;99907.44;;;11.16;88.36
61618;BME280;47518;51.776;9.370;2023-03-21T15:33:05;99900.44;;;10.92;89.26
61618;BME280;47518;51.776;9.370;2023-03-21T15:35:38;99898.75;;;10.91;90.58
61618;BME280;47518;51.776;9.370;2023-03-21T15:38:04;99901.56;;;10.82;91.05
61618;BME280;47518;51.776;9.370;2023-03-21T15:40:32;99896.03;;;10.91;89.98
61618;BME280;47518;51.776;9.370;2023-03-21T15:43:20;99886.84;;;10.92;89.45
61618;BME280;47518;51.776;9.370;2023-03-21T15:45:48;99876.81;;;10.77;90.22
61618;BME280;47518;51.776;9.370;2023-03-21T15:48:14;99878.22;;;10.73;90.71
61618;BME280;47518;51.776;9.370;2023-03-21T15:50:48;99879.53;;;10.63;92.19
61618;BME280;47518;51.776;9.370;2023-03-21T15:53:17;99902.69;;;10.59;93.05
61618;BME280;47518;51.776;9.370;2023-03-21T15:55:49;99898.28;;;10.58;92.30
61618;BME280;47518;51.776;9.370;2023-03-21T15:58:21;99904.25;;;10.53;94.10
61618;BME280;47518;51.776;9.370;2023-03-21T16:00:51;99903.41;;;10.52;92.42
61618;BME280;47518;51.776;9.370;2023-03-21T16:03:27;99892.06;;;10.34;92.98
61618;BME280;47518;51.776;9.370;2023-03-21T16:19:16;99888.25;;;10.43;93.54
61618;BME280;47518;51.776;9.370;2023-03-21T16:21:42;99895.38;;;10.44;92.32
61618;BME280;47518;51.776;9.370;2023-03-21T16:24:09;99886.91;;;10.39;92.98
61618;BME280;47518;51.776;9.370;2023-03-21T16:26:38;99879.13;;;10.51;92.24
61618;BME280;47518;51.776;9.370;2023-03-21T16:29:04;99883.66;;;10.44;93.47
61618;BME280;47518;51.776;9.370;2023-03-21T16:31:34;99880.47;;;10.55;92.64
61618;BME280;47518;51.776;9.370;2023-03-21T16:34:03;99873.44;;;10.61;92.94
61618;BME280;47518;51.776;9.370;2023-03-21T16:36:35;99867.81;;;10.62;91.77
61618;BME280;47518;51.776;9.370;2023-03-21T16:39:10;99875.22;;;10.68;91.60
61618;BME280;47518;51.776;9.370;2023-03-21T16:41:37;99893.38;;;10.53;90.74
61618;BME280;47518;51.776;9.370;2023-03-21T16:44:03;99883.84;;;10.42;90.99
61618;BME280;47518;51.776;9.370;2023-03-21T16:46:28;99892.00;;;10.42;91.14
61618;BME280;47518;51.776;9.370;2023-03-21T16:48:56;99896.97;;;10.54;90.29
61618;BME280;47518;51.776;9.370;2023-03-21T16:51:33;99896.94;;;10.39;91.11
61618;BME280;47518;51.776;9.370;2023-03-21T16:54:00;99895.63;;;10.35;90.85
61618;BME280;47518;51.776;9.370;2023-03-21T16:56:42;99885.41;;;10.37;89.53
61618;BME280;47518;51.776;9.370;2023-03-21T16:59:11;99887.56;;;10.41;88.75
61618;BME280;47518;51.776;9.370;2023-03-21T17:01:37;99883.47;;;10.31;89.51
61618;BME280;47518;51.776;9.370;2023-03-21T17:04:06;99891.75;;;10.29;89.68
61618;BME280;47518;51.776;9.370;2023-03-21T17:06:47;99884.94;;;10.33;91.22
61618;BME280;47518;51.776;9.370;2023-03-21T17:09:14;99884.94;;;10.33;90.52
61618;BME280;47518;51.776;9.370;2023-03-21T17:11:43;99875.97;;;10.47;88.73
61618;BME280;47518;51.776;9.370;2023-03-21T17:14:10;99893.94;;;10.48;89.53
61618;BME280;47518;51.776;9.370;2023-03-21T17:16:36;99883.16;;;10.40;88.90
61618;BME280;47518;51.776;9.370;2023-03-21T17:19:17;99883.53;;;10.37;89.35
61618;BME280;47518;51.776;9.370;2023-03-21T17:21:43;99878.09;;;10.37;88.67
61618;BME280;47518;51.776;9.370;2023-03-21T17:24:09;99884.56;;;10.36;90.01
61618;BME280;47518;51.776;9.370;2023-03-21T17:26:34;99893.69;;;10.43;89.54
61618;BME280;47518;51.776;9.370;2023-03-21T17:29:00;99907.53;;;10.48;88.98
61618;BME280;47518;51.776;9.370;2023-03-21T17:31:27;99901.25;;;10.33;88.79
61618;BME280;47518;51.776;9.370;2023-03-21T17:33:56;99890.47;;;10.25;88.95
61618;BME280;47518;51.776;9.370;2023-03-21T17:39:09;99902.28;;;10.32;88.26
61618;BME280;47518;51.776;9.370;2023-03-21T17:41:37;99894.22;;;10.24;89.50
61618;BME280;47518;51.776;9.370;2023-03-21T17:44:02;99897.38;;;10.28;89.66
61618;BME280;47518;51.776;9.370;2023-03-21T17:46:28;99900.28;;;10.26;89.23
61618;BME280;47518;51.776;9.370;2023-03-21T17:48:57;99905.75;;;10.18;89.08
61618;BME280;47518;51.776;9.370;2023-03-21T17:51:23;99896.13;;;10.15;88.60
61618;BME280;47518;51.776;9.370;2023-03-21T17:53:54;99910.72;;;10.14;88.94
61618;BME280;47518;51.776;9.370;2023-03-21T17:56:21;99914.19;;;10.08;89.54
61618;BME280;47518;51.776;9.370;2023-03-21T17:58:50;99898.53;;;9.96;89.93
61618;BME280;47518;51.776;9.370;2023-03-21T18:01:15;99894.03;;;10.03;89.97
61618;BME280;47518;51.776;9.370;2023-03-21T18:03:43;99898.38;;;10.12;88.79
61618;BME280;47518;51.776;9.370;2023-03-21T18:06:19;99913.16;;;10.09;89.35
61618;BME280;47518;51.776;9.370;2023-03-21T18:08:46;99907.97;;;10.00;89.59
61618;BME280;47518;51.776;9.370;2023-03-21T18:11:13;99911.22;;;9.95;89.95
61618;BME280;47518;51.776;9.370;2023-03-21T18:13:39;99911.06;;;9.97;88.40
61618;BME280;47518;51.776;9.370;2023-03-21T18:16:05;99920.47;;;10.09;89.46
61618;BME280;47518;51.776;9.370;2023-03-21T18:18:33;99905.13;;;9.93;88.90
61618;BME280;47518;51.776;9.370;2023-03-21T18:20:59;99906.66;;;9.96;87.65
61618;BME280;47518;51.776;9.370;2023-03-21T18:23:24;99915.56;;;10.04;86.91
61618;BME280;47518;51.776;9.370;2023-03-21T18:25:50;99919.66;;;9.85;87.82
61618;BME280;47518;51.776;9.370;2023-03-21T18:28:16;99914.88;;;9.87;87.57
61618;BME280;47518;51.776;9.370;2023-03-21T18:30:42;99914.22;;;9.85;87.94
61618;BME280;47518;51.776;9.370;2023-03-21T18:33:08;99897.78;;;9.79;87.52
61618;BME280;47518;51.776;9.370;2023-03-21T18:35:33;99912.41;;;9.78;86.26
61618;BME280;47518;51.776;9.370;2023-03-21T18:37:58;99915.25;;;9.84;87.09
61618;BME280;47518;51.776;9.370;2023-03-21T18:40:24;99925.97;;;9.78;87.04
61618;BME280;47518;51.776;9.370;2023-03-21T18:42:49;99923.72;;;9.81;85.67
61618;BME280;47518;51.776;9.370;2023-03-21T18:45:16;99922.66;;;9.68;86.25
61618;BME280;47518;51.776;9.370;2023-03-21T18:47:43;99935.66;;;9.72;86.70
61618;BME280;47518;51.776;9.370;2023-03-21T18:50:09;99933.28;;;9.77;86.50
61618;BME280;47518;51.776;9.370;2023-03-21T18:52:36;99936.53;;;9.73;86.40
61618;BME280;47518;51.776;9.370;2023-03-21T18:55:03;99941.66;;;9.68;85.61
61618;BME280;47518;51.776;9.370;2023-03-21T18:57:29;99941.22;;;9.56;87.05
61618;BME280;47518;51.776;9.370;2023-03-21T18:59:54;99939.81;;;9.60;86.44
61618;BME280;47518;51.776;9.370;2023-03-21T19:02:20;99935.94;;;9.62;86.52
61618;BME280;47518;51.776;9.370;2023-03-21T19:04:46;99938.13;;;9.59;87.48
61618;BME280;47518;51.776;9.370;2023-03-21T19:07:12;99925.69;;;9.73;85.87
61618;BME280;47518;51.776;9.370;2023-03-21T19:09:37;99917.88;;;9.70;86.73
61618;BME280;47518;51.776;9.370;2023-03-21T19:12:03;99930.56;;;9.77;85.22
61618;BME280;47518;51.776;9.370;2023-03-21T19:14:28;99931.16;;;9.64;85.40
61618;BME280;47518;51.776;9.370;2023-03-21T19:16:54;99929.31;;;9.57;87.34
61618;BME280;47518;51.776;9.370;2023-03-21T19:19:26;99926.97;;;9.54;86.77
61618;BME280;47518;51.776;9.370;2023-03-21T19:21:51;99943.66;;;9.74;85.67
61618;BME280;47518;51.776;9.370;2023-03-21T19:24:18;99937.09;;;9.60;86.74
61618;BME280;47518;51.776;9.370;2023-03-21T19:26:44;99941.22;;;9.56;86.59
61618;BME280;47518;51.776;9.370;2023-03-21T19:29:10;99939.16;;;9.58;86.61
61618;BME280;47518;51.776;9.370;2023-03-21T19:31:38;99941.66;;;9.68;85.46
61618;BME280;47518;51.776;9.370;2023-03-21T19:34:04;99938.28;;;9.65;85.65
61618;BME280;47518;51.776;9.370;2023-03-21T19:36:35;99946.47;;;9.80;85.10
61618;BME280;47518;51.776;9.370;2023-03-21T19:39:08;99947.25;;;9.66;86.73
61618;BME280;47518;51.776;9.370;2023-03-21T19:41:34;99939.66;;;9.61;86.43
61618;BME280;47518;51.776;9.370;2023-03-21T19:44:00;99945.00;;;9.70;85.27
61618;BME280;47518;51.776;9.370;2023-03-21T19:46:25;99945.84;;;9.70;86.68
61618;BME280;47518;51.776;9.370;2023-03-21T19:48:52;99940.19;;;9.80;85.17
61618;BME280;47518;51.776;9.370;2023-03-21T19:51:18;99949.09;;;9.74;85.40